createdAt,value
2018-03-15T00:01:55.795Z,73.88
2018-03-15T00:04:32.780Z,73.82
2018-03-15T00:07:03.833Z,74.18
2018-03-15T00:09:34.834Z,74.02
2018-03-15T00:12:05.869Z,74.03
2018-03-15T00:14:36.907Z,73.91
2018-03-15T00:17:07.888Z,73.81
2018-03-15T00:19:38.879Z,74.05
2018-03-15T00:22:09.901Z,74.37
2018-03-15T00:24:40.932Z,74.26
2018-03-15T00:27:11.954Z,74.50
2018-03-15T00:29:42.955Z,74.56
2018-03-15T00:32:13.933Z,74.71
2018-03-15T00:34:44.916Z,74.54
2018-03-15T00:37:15.928Z,74.30
2018-03-15T00:39:46.930Z,73.99
2018-03-15T00:42:17.928Z,73.63
2018-03-15T00:44:48.954Z,73.73
2018-03-15T00:47:19.965Z,73.80
2018-03-15T00:49:50.931Z,73.48
2018-03-15T00:52:21.914Z,73.34
2018-03-15T00:54:52.933Z,73.38
2018-03-15T00:57:23.966Z,73.39
2018-03-15T00:59:54.935Z,73.32
2018-03-15T01:02:26.001Z,73.39
2018-03-15T01:04:57.009Z,74.22
2018-03-15T01:07:28.024Z,74.31
2018-03-15T01:09:59.045Z,74.46
2018-03-15T01:12:30.051Z,74.76
2018-03-15T01:15:01.071Z,74.76
2018-03-15T01:17:32.086Z,75.02
2018-03-15T01:20:03.104Z,74.91
2018-03-15T01:22:34.104Z,74.90
2018-03-15T01:25:05.077Z,75.30
2018-03-15T01:27:36.069Z,75.25
2018-03-15T01:30:07.046Z,75.63
2018-03-15T01:32:38.030Z,75.83
2018-03-15T01:35:09.032Z,75.73
2018-03-15T01:37:39.978Z,75.56
2018-03-15T01:40:11.045Z,75.69
2018-03-15T01:42:42.049Z,76.29
2018-03-15T01:45:13.085Z,76.39
2018-03-15T01:47:44.076Z,76.67
2018-03-15T01:50:15.084Z,76.66
2018-03-15T01:52:46.093Z,76.81
2018-03-15T01:55:17.078Z,76.87
2018-03-15T01:57:48.070Z,77.04
2018-03-15T02:00:19.047Z,77.38
2018-03-15T02:02:50.048Z,77.61
2018-03-15T02:05:21.092Z,77.62
2018-03-15T02:07:52.093Z,77.41
2018-03-15T02:10:23.102Z,77.37
2018-03-15T02:12:54.096Z,77.34
2018-03-15T02:15:25.082Z,77.42
2018-03-15T02:17:56.072Z,77.47
2018-03-15T02:20:27.065Z,77.37
2018-03-15T02:22:58.059Z,77.43
2018-03-15T02:25:29.036Z,77.40
2018-03-15T02:28:00.038Z,77.59
2018-03-15T02:30:31.042Z,77.63
2018-03-15T02:33:02.032Z,77.59
2018-03-15T02:35:33.028Z,77.83
2018-03-15T02:38:04.002Z,77.63
2018-03-15T02:40:35.046Z,77.27
2018-03-15T02:43:06.045Z,77.22
2018-03-15T02:45:37.042Z,77.35
2018-03-15T02:48:14.883Z,77.27
2018-03-15T02:50:45.902Z,77.37
2018-03-15T02:53:16.901Z,77.29
2018-03-15T02:55:47.890Z,77.36
2018-03-15T02:58:18.884Z,77.48
2018-03-15T03:00:49.906Z,77.62
2018-03-15T03:03:20.874Z,77.34
2018-03-15T03:05:52.274Z,77.45
2018-03-15T03:08:23.284Z,77.23
2018-03-15T03:10:54.337Z,77.01
2018-03-15T03:13:25.331Z,76.92
2018-03-15T03:15:56.340Z,76.90
2018-03-15T03:18:27.299Z,76.54
2018-03-15T03:20:58.309Z,76.51
2018-03-15T03:23:29.315Z,76.82
2018-03-15T03:26:00.321Z,77.08
2018-03-15T03:28:31.335Z,77.41
2018-03-15T03:31:02.358Z,77.57
2018-03-15T03:33:33.365Z,77.84
2018-03-15T03:36:04.347Z,77.62
2018-03-15T03:38:35.374Z,77.82
2018-03-15T03:41:06.393Z,77.96
2018-03-15T03:43:37.376Z,78.16
2018-03-15T03:46:08.389Z,78.21
2018-03-15T03:48:39.392Z,78.03
2018-03-15T03:51:10.358Z,78.09
2018-03-15T03:53:41.354Z,78.10
2018-03-15T03:56:12.305Z,78.08
2018-03-15T03:58:43.273Z,78.09
2018-03-15T04:01:14.250Z,78.20
2018-03-15T04:03:45.244Z,78.44
2018-03-15T04:06:16.259Z,78.49
2018-03-15T04:08:47.281Z,78.38
2018-03-15T04:11:18.277Z,78.37
2018-03-15T04:13:49.306Z,78.41
2018-03-15T04:16:20.274Z,78.22
2018-03-15T04:18:51.314Z,78.13
2018-03-15T04:21:22.321Z,77.95
2018-03-15T04:23:53.324Z,77.81
2018-03-15T04:26:24.314Z,77.24
2018-03-15T04:28:55.315Z,77.21
2018-03-15T04:31:26.319Z,77.00
2018-03-15T04:33:57.297Z,76.87
2018-03-15T04:36:28.261Z,76.72
2018-03-15T04:38:59.246Z,76.75
2018-03-15T04:41:30.304Z,76.73
2018-03-15T04:44:01.311Z,76.83
2018-03-15T04:46:32.310Z,76.91
2018-03-15T04:49:03.303Z,76.91
2018-03-15T04:51:34.305Z,76.54
2018-03-15T04:54:05.283Z,76.45
2018-03-15T04:56:36.272Z,76.35
2018-03-15T04:59:07.258Z,75.89
2018-03-15T05:01:38.283Z,75.36
2018-03-15T05:04:09.294Z,75.01
2018-03-15T05:06:40.293Z,74.97
2018-03-15T05:09:11.268Z,75.14
2018-03-15T05:11:42.310Z,75.17
2018-03-15T05:14:13.279Z,74.97
2018-03-15T05:16:44.286Z,74.70
2018-03-15T05:19:15.269Z,74.62
2018-03-15T05:21:46.265Z,74.37
2018-03-15T05:24:17.265Z,74.11
2018-03-15T05:26:48.265Z,74.19
2018-03-15T05:29:19.253Z,74.27
2018-03-15T05:31:50.283Z,74.41
2018-03-15T05:34:21.309Z,74.49
2018-03-15T05:36:52.280Z,73.96
2018-03-15T05:39:23.305Z,73.46
2018-03-15T05:41:54.300Z,73.10
2018-03-15T05:44:25.339Z,72.84
2018-03-15T05:46:56.332Z,72.48
2018-03-15T05:49:27.355Z,72.11
2018-03-15T05:51:58.355Z,71.82
2018-03-15T05:54:29.317Z,71.35
2018-03-15T05:57:00.271Z,70.93
2018-03-15T05:59:31.264Z,71.14
2018-03-15T06:02:02.424Z,71.14
2018-03-15T06:04:33.398Z,70.79
2018-03-15T06:07:04.378Z,70.74
2018-03-15T06:09:35.412Z,70.91
2018-03-15T06:12:06.413Z,70.65
2018-03-15T06:14:37.374Z,70.37
2018-03-15T06:17:08.334Z,70.42
2018-03-15T06:19:39.300Z,70.35
2018-03-15T06:22:10.282Z,70.35
2018-03-15T06:24:41.284Z,70.09
2018-03-15T06:27:12.259Z,69.90
2018-03-15T06:29:43.224Z,69.36
2018-03-15T06:32:14.210Z,68.97
2018-03-15T06:34:45.240Z,68.92
2018-03-15T06:37:16.245Z,68.72
2018-03-15T06:39:47.219Z,68.38
2018-03-15T06:42:18.209Z,67.97
2018-03-15T06:44:49.214Z,67.16
2018-03-15T06:47:20.202Z,66.29
2018-03-15T06:49:51.175Z,66.16
2018-03-15T06:52:22.184Z,66.01
2018-03-15T06:54:53.161Z,65.69
2018-03-15T06:57:24.156Z,65.80
2018-03-15T06:59:55.138Z,65.15
2018-03-15T07:02:26.099Z,64.48
2018-03-15T07:04:57.086Z,63.86
2018-03-15T07:07:28.053Z,64.16
2018-03-15T07:09:59.074Z,63.74
2018-03-15T07:12:30.077Z,62.97
2018-03-15T07:15:01.087Z,62.90
2018-03-15T07:17:32.116Z,62.62
2018-03-15T07:20:03.145Z,62.26
2018-03-15T07:22:34.147Z,62.58
2018-03-15T07:25:05.101Z,62.28
2018-03-15T07:27:36.126Z,61.66
2018-03-15T07:30:07.133Z,60.84
2018-03-15T07:32:38.211Z,60.21
2018-03-15T07:35:09.204Z,59.42
2018-03-15T07:37:40.276Z,59.50
2018-03-15T07:40:11.264Z,58.60
2018-03-15T07:42:42.256Z,58.09
2018-03-15T07:45:13.264Z,57.56
2018-03-15T07:47:44.275Z,56.98
2018-03-15T07:50:15.284Z,57.02
2018-03-15T07:52:46.295Z,56.98
2018-03-15T07:55:17.300Z,56.41
2018-03-15T07:57:48.365Z,55.28
2018-03-15T08:00:19.407Z,54.02
2018-03-15T08:02:50.396Z,52.32
2018-03-15T08:05:21.403Z,52.03
2018-03-15T08:07:52.398Z,51.69
2018-03-15T08:10:23.437Z,50.28
2018-03-15T08:12:54.396Z,49.41
2018-03-15T08:15:25.339Z,47.90
2018-03-15T08:17:56.351Z,46.54
2018-03-15T08:20:27.335Z,45.18
2018-03-15T08:22:58.331Z,43.99
2018-03-15T08:25:29.305Z,43.05
2018-03-15T08:28:00.332Z,40.58
2018-03-15T08:30:31.315Z,40.68
2018-03-15T08:33:02.365Z,38.46
2018-03-15T08:35:33.381Z,33.85
2018-03-15T08:38:05.222Z,31.73
2018-03-15T08:40:36.229Z,30.81
2018-03-15T08:43:07.267Z,31.33
2018-03-15T08:45:38.298Z,32.48
2018-03-15T08:48:09.337Z,34.28
2018-03-15T08:50:40.374Z,33.53
2018-03-15T08:53:11.386Z,33.31
2018-03-15T08:55:42.408Z,31.58
2018-03-15T08:58:13.350Z,29.81
2018-03-15T09:00:44.373Z,29.72
2018-03-15T09:03:15.381Z,29.51
2018-03-15T09:05:46.390Z,28.93
2018-03-15T09:08:17.450Z,29.08
2018-03-15T09:10:48.461Z,29.22
2018-03-15T09:13:19.470Z,29.55
2018-03-15T09:15:50.478Z,29.94
2018-03-15T09:18:21.466Z,30.25
2018-03-15T09:20:52.520Z,30.37
2018-03-15T09:23:23.553Z,29.98
2018-03-15T09:25:54.550Z,30.05
2018-03-15T09:28:25.566Z,29.53
2018-03-15T09:30:56.566Z,30.40
2018-03-15T09:33:27.607Z,29.82
2018-03-15T09:35:58.601Z,28.35
2018-03-15T09:38:29.628Z,27.70
2018-03-15T09:41:00.638Z,27.46
2018-03-15T09:43:31.598Z,27.06
2018-03-15T09:46:02.735Z,26.71
2018-03-15T09:48:33.704Z,27.00
2018-03-15T09:51:04.717Z,27.31
2018-03-15T09:53:35.821Z,25.25
2018-03-15T09:56:06.846Z,24.48
2018-03-15T09:58:37.837Z,21.76
2018-03-15T10:01:08.901Z,21.28
2018-03-15T10:03:39.906Z,20.06
2018-03-15T10:06:10.940Z,20.18
2018-03-15T10:08:41.940Z,19.60
2018-03-15T10:11:13.003Z,18.05
2018-03-15T10:13:43.974Z,19.08
2018-03-15T10:16:15.018Z,19.51
2018-03-15T10:18:46.056Z,20.01
2018-03-15T10:21:17.068Z,19.22
2018-03-15T10:23:48.102Z,19.64
2018-03-15T10:26:19.153Z,19.08
2018-03-15T10:28:50.179Z,18.83
2018-03-15T10:31:21.140Z,19.35
2018-03-15T10:33:52.159Z,20.57
2018-03-15T10:36:23.143Z,21.10
2018-03-15T10:38:54.143Z,22.01
2018-03-15T10:41:25.152Z,23.11
2018-03-15T10:43:56.137Z,25.33
2018-03-15T10:46:27.131Z,26.82
2018-03-15T10:48:58.143Z,27.24
2018-03-15T10:51:29.140Z,27.95
2018-03-15T10:54:00.158Z,27.98
2018-03-15T10:56:31.178Z,27.38
2018-03-15T10:59:02.218Z,26.72
2018-03-15T11:01:39.432Z,25.69
2018-03-15T11:04:10.467Z,25.25
2018-03-15T11:06:41.493Z,25.28
2018-03-15T11:09:13.393Z,24.89
2018-03-15T11:11:44.429Z,24.13
2018-03-15T11:14:15.450Z,24.21
2018-03-15T11:16:46.475Z,24.81
2018-03-15T11:19:18.319Z,25.50
2018-03-15T11:21:49.347Z,25.75
2018-03-15T11:24:20.324Z,25.93
2018-03-15T11:26:51.286Z,27.65
2018-03-15T11:29:22.298Z,29.48
2018-03-15T11:31:53.299Z,31.39
2018-03-15T11:34:24.402Z,33.03
2018-03-15T11:36:55.365Z,33.36
2018-03-15T11:39:26.375Z,34.15
2018-03-15T11:41:57.357Z,33.77
2018-03-15T11:44:28.393Z,33.71
2018-03-15T11:46:59.323Z,34.49
2018-03-15T11:49:30.336Z,35.19
2018-03-15T11:52:01.337Z,34.77
2018-03-15T11:54:32.355Z,33.69
2018-03-15T11:57:03.355Z,33.03
2018-03-15T11:59:34.362Z,32.60
2018-03-15T12:02:05.413Z,32.85
2018-03-15T12:04:36.419Z,32.66
2018-03-15T12:07:07.443Z,32.08
2018-03-15T12:09:38.418Z,32.22
2018-03-15T12:12:09.395Z,31.86
2018-03-15T12:14:40.383Z,31.76
2018-03-15T12:17:11.426Z,32.21
2018-03-15T12:19:42.403Z,32.40
2018-03-15T12:22:13.442Z,33.19
2018-03-15T12:24:44.433Z,34.53
2018-03-15T12:27:15.449Z,35.04
2018-03-15T12:29:46.484Z,34.94
2018-03-15T12:32:17.443Z,34.56
2018-03-15T12:34:48.424Z,35.52
2018-03-15T12:37:19.380Z,35.73
2018-03-15T12:39:50.375Z,36.75
2018-03-15T12:42:21.377Z,36.74
2018-03-15T12:44:59.460Z,36.24
2018-03-15T12:47:30.459Z,36.79
2018-03-15T12:50:01.471Z,36.20
2018-03-15T12:52:32.424Z,36.76
2018-03-15T12:55:03.430Z,36.67
2018-03-15T12:57:34.412Z,36.59
2018-03-15T13:00:05.438Z,36.90
2018-03-15T13:02:36.437Z,36.79
2018-03-15T13:05:07.421Z,36.30
2018-03-15T13:07:38.426Z,36.57
2018-03-15T13:10:09.375Z,35.72
2018-03-15T13:12:40.376Z,35.56
2018-03-15T13:15:11.336Z,35.95
2018-03-15T13:17:42.371Z,36.57
2018-03-15T13:20:13.340Z,36.22
2018-03-15T13:22:44.382Z,35.28
2018-03-15T13:25:15.386Z,36.14
2018-03-15T13:27:46.372Z,36.27
2018-03-15T13:30:17.430Z,36.19
2018-03-15T13:32:48.359Z,36.22
2018-03-15T13:35:19.458Z,37.11
2018-03-15T13:37:50.597Z,36.71
2018-03-15T13:40:21.609Z,36.16
2018-03-15T13:42:52.612Z,36.48
2018-03-15T13:45:23.584Z,36.07
2018-03-15T13:47:54.613Z,35.34
2018-03-15T13:50:25.566Z,35.46
2018-03-15T13:52:56.576Z,35.39
2018-03-15T13:55:27.549Z,35.05
2018-03-15T13:57:58.554Z,36.06
2018-03-15T14:00:29.549Z,36.53
2018-03-15T14:03:00.531Z,36.56
2018-03-15T14:05:31.567Z,35.51
2018-03-15T14:08:02.605Z,34.50
2018-03-15T14:10:33.614Z,34.65
2018-03-15T14:13:04.663Z,33.61
2018-03-15T14:15:35.719Z,34.15
2018-03-15T14:18:06.673Z,34.14
2018-03-15T14:20:37.674Z,33.14
2018-03-15T14:23:08.671Z,33.09
2018-03-15T14:25:39.627Z,33.33
2018-03-15T14:28:10.644Z,33.93
2018-03-15T14:30:41.636Z,34.25
2018-03-15T14:33:12.606Z,34.91
2018-03-15T14:35:43.586Z,35.12
2018-03-15T14:38:14.563Z,35.38
2018-03-15T14:40:45.645Z,35.54
2018-03-15T14:43:16.632Z,34.97
2018-03-15T14:45:47.613Z,35.25
2018-03-15T14:48:18.591Z,34.69
2018-03-15T14:50:49.586Z,34.80
2018-03-15T14:53:20.559Z,34.57
2018-03-15T14:55:51.589Z,34.47
2018-03-15T14:58:22.574Z,35.27
2018-03-15T15:00:53.571Z,35.87
2018-03-15T15:03:24.604Z,36.06
2018-03-15T15:05:55.596Z,36.21
2018-03-15T15:08:26.602Z,36.16
2018-03-15T15:10:57.568Z,36.51
2018-03-15T15:13:28.544Z,36.96
2018-03-15T15:15:59.521Z,37.31
2018-03-15T15:18:30.505Z,37.56
2018-03-15T15:21:01.484Z,37.28
2018-03-15T15:23:32.508Z,37.21
2018-03-15T15:26:03.527Z,38.10
2018-03-15T15:28:34.484Z,38.21
2018-03-15T15:31:05.467Z,38.36
2018-03-15T15:33:36.478Z,38.83
2018-03-15T15:36:07.526Z,38.39
2018-03-15T15:38:38.516Z,37.97
2018-03-15T15:41:09.543Z,38.03
2018-03-15T15:43:40.468Z,37.39
2018-03-15T15:46:11.456Z,37.68
2018-03-15T15:48:42.501Z,37.48
2018-03-15T15:51:13.494Z,37.85
2018-03-15T15:53:44.471Z,37.58
2018-03-15T15:56:15.409Z,37.42
2018-03-15T15:58:46.471Z,37.44
2018-03-15T16:01:17.473Z,36.63
2018-03-15T16:03:48.441Z,36.83
2018-03-15T16:06:19.437Z,36.85
2018-03-15T16:08:50.453Z,36.19
2018-03-15T16:11:21.417Z,36.32
2018-03-15T16:13:52.422Z,36.42
2018-03-15T16:16:23.419Z,35.93
2018-03-15T16:18:54.415Z,36.00
2018-03-15T16:21:25.430Z,36.36
2018-03-15T16:23:56.458Z,36.89
2018-03-15T16:26:27.441Z,37.47
2018-03-15T16:28:58.488Z,38.41
2018-03-15T16:31:29.475Z,39.31
2018-03-15T16:34:00.495Z,40.03
2018-03-15T16:36:31.458Z,40.63
2018-03-15T16:39:02.448Z,41.20
2018-03-15T16:41:33.475Z,41.51
2018-03-15T16:44:04.506Z,41.75
2018-03-15T16:46:35.484Z,42.23
2018-03-15T16:49:06.497Z,42.51
2018-03-15T16:51:37.448Z,42.73
2018-03-15T16:54:08.408Z,42.83
2018-03-15T16:56:39.403Z,43.19
2018-03-15T16:59:10.401Z,43.55
2018-03-15T17:01:41.361Z,44.05
2018-03-15T17:04:12.341Z,44.76
2018-03-15T17:06:43.796Z,44.96
2018-03-15T17:09:14.848Z,45.26
2018-03-15T17:11:45.848Z,45.46
2018-03-15T17:14:16.819Z,45.50
2018-03-15T17:16:47.822Z,45.92
2018-03-15T17:19:18.862Z,45.88
2018-03-15T17:21:49.851Z,46.15
2018-03-15T17:24:20.905Z,46.18
2018-03-15T17:26:51.916Z,46.27
2018-03-15T17:29:22.989Z,46.02
2018-03-15T17:31:53.973Z,46.19
2018-03-15T17:34:25.064Z,46.26
2018-03-15T17:36:56.056Z,46.30
2018-03-15T17:39:27.018Z,46.53
2018-03-15T17:41:58.026Z,46.55
2018-03-15T17:44:29.009Z,46.44
2018-03-15T17:47:00.026Z,46.48
2018-03-15T17:49:31.024Z,46.51
2018-03-15T17:52:02.028Z,46.56
2018-03-15T17:54:33.063Z,46.61
2018-03-15T17:57:04.053Z,46.55
2018-03-15T17:59:35.024Z,46.69
2018-03-15T18:02:06.046Z,46.68
2018-03-15T18:04:37.036Z,46.45
2018-03-15T18:07:08.039Z,46.43
2018-03-15T18:09:39.074Z,46.37
2018-03-15T18:12:10.057Z,46.64
2018-03-15T18:14:41.105Z,46.51
2018-03-15T18:17:12.106Z,46.71
2018-03-15T18:19:43.118Z,46.91
2018-03-15T18:22:14.152Z,46.93
2018-03-15T18:24:45.139Z,46.99
2018-03-15T18:27:16.165Z,46.97
2018-03-15T18:29:47.316Z,46.93
2018-03-15T18:32:18.318Z,47.27
2018-03-15T18:34:49.307Z,47.83
2018-03-15T18:37:20.300Z,48.04
2018-03-15T18:39:51.304Z,48.50
2018-03-15T18:42:22.336Z,49.06
2018-03-15T18:44:53.325Z,49.46
2018-03-15T18:47:24.372Z,49.79
2018-03-15T18:49:55.396Z,49.83
2018-03-15T18:52:26.397Z,49.85
2018-03-15T18:54:57.416Z,49.82
2018-03-15T18:57:28.453Z,49.91
2018-03-15T18:59:59.463Z,50.06
2018-03-15T19:02:30.491Z,50.17
2018-03-15T19:05:01.496Z,50.58
2018-03-15T19:07:32.481Z,50.32
2018-03-15T19:10:03.526Z,50.20
2018-03-15T19:12:34.548Z,50.23
2018-03-15T19:15:05.552Z,50.19
2018-03-15T19:17:36.571Z,50.05
2018-03-15T19:20:07.577Z,50.33
2018-03-15T19:22:38.531Z,51.08
2018-03-15T19:25:09.504Z,51.06
2018-03-15T19:27:40.477Z,51.30
2018-03-15T19:30:11.509Z,52.09
2018-03-15T19:32:42.518Z,52.46
2018-03-15T19:35:13.530Z,52.78
2018-03-15T19:37:44.507Z,53.06
2018-03-15T19:40:15.565Z,52.64
2018-03-15T19:42:46.523Z,52.49
2018-03-15T19:45:18.104Z,52.50
2018-03-15T19:47:49.107Z,52.50
2018-03-15T19:50:20.103Z,52.77
2018-03-15T19:52:51.128Z,53.06
2018-03-15T19:55:22.984Z,53.11
2018-03-15T19:57:54.224Z,53.49
2018-03-15T20:00:25.278Z,53.32
2018-03-15T20:02:56.317Z,53.29
2018-03-15T20:05:27.308Z,53.51
2018-03-15T20:07:59.121Z,53.24
2018-03-15T20:10:30.150Z,52.81
2018-03-15T20:13:01.125Z,53.00
2018-03-15T20:15:38.293Z,52.73
2018-03-15T20:18:09.271Z,53.13
2018-03-15T20:20:40.286Z,53.23
2018-03-15T20:23:17.259Z,53.34
2018-03-15T20:25:48.272Z,53.49
2018-03-15T20:28:25.250Z,53.38
2018-03-15T20:30:56.285Z,53.63
2018-03-15T20:33:33.380Z,53.70
2018-03-15T20:36:04.428Z,54.00
2018-03-15T20:38:35.409Z,54.08
2018-03-15T20:41:12.560Z,53.80
2018-03-15T20:43:43.578Z,53.77
2018-03-15T20:46:20.607Z,53.64
2018-03-15T20:48:57.652Z,53.78
2018-03-15T20:54:23.507Z,53.52
2018-03-15T20:56:54.530Z,53.83
2018-03-15T20:59:25.536Z,54.07
2018-03-15T21:01:56.532Z,53.91
2018-03-15T21:04:27.481Z,53.47
2018-03-15T21:06:58.458Z,53.41
2018-03-15T21:09:29.420Z,53.52
2018-03-15T21:12:06.408Z,53.37
2018-03-15T21:14:37.392Z,53.41
2018-03-15T21:17:08.333Z,53.31
2018-03-15T21:19:39.297Z,53.27
2018-03-15T21:22:10.278Z,53.79
2018-03-15T21:24:41.218Z,54.08
2018-03-15T21:27:12.234Z,54.17
2018-03-15T21:29:43.182Z,54.08
2018-03-15T21:32:14.158Z,53.99
2018-03-15T21:34:45.101Z,53.99
2018-03-15T21:37:16.090Z,53.74
2018-03-15T21:39:47.037Z,53.81
2018-03-15T21:42:17.983Z,53.66
2018-03-15T21:44:48.957Z,53.81
2018-03-15T21:47:19.929Z,53.93
2018-03-15T21:49:50.909Z,53.84
2018-03-15T21:52:21.856Z,53.73
2018-03-15T21:54:52.842Z,53.90
2018-03-15T21:57:23.798Z,53.97
2018-03-15T21:59:54.754Z,54.04
2018-03-15T22:02:25.693Z,54.07
2018-03-15T22:04:56.703Z,54.44
2018-03-15T22:07:27.614Z,54.35
2018-03-15T22:09:58.573Z,54.09
2018-03-15T22:12:29.571Z,54.01
2018-03-15T22:15:00.518Z,54.29
2018-03-15T22:17:31.463Z,54.57
2018-03-15T22:20:02.446Z,54.79
2018-03-15T22:22:33.394Z,55.13
2018-03-15T22:25:04.405Z,55.40
2018-03-15T22:27:35.352Z,55.51
2018-03-15T22:30:06.322Z,55.77
2018-03-15T22:32:37.262Z,56.06
2018-03-15T22:35:08.248Z,55.90
2018-03-15T22:37:39.214Z,55.95
2018-03-15T22:40:10.168Z,55.67
2018-03-15T22:42:41.125Z,55.27
2018-03-15T22:45:12.090Z,55.11
2018-03-15T22:47:43.058Z,55.24
2018-03-15T22:50:14.023Z,55.14
2018-03-15T22:52:44.982Z,55.32
2018-03-15T22:55:15.945Z,55.21
2018-03-15T22:57:46.889Z,55.23
2018-03-15T23:00:17.854Z,55.78
2018-03-15T23:02:48.821Z,55.95
2018-03-15T23:05:19.766Z,56.26
2018-03-15T23:07:50.726Z,56.29
2018-03-15T23:10:21.677Z,55.86
2018-03-15T23:12:52.639Z,55.56
2018-03-15T23:15:23.593Z,55.54
2018-03-15T23:17:54.545Z,55.22
2018-03-15T23:20:25.490Z,55.02
2018-03-15T23:22:56.454Z,54.86
2018-03-15T23:25:27.401Z,54.69
2018-03-15T23:27:58.346Z,54.86
2018-03-15T23:30:29.317Z,54.87
2018-03-15T23:33:00.257Z,54.94
2018-03-15T23:35:31.229Z,55.07
2018-03-15T23:38:02.179Z,55.10
2018-03-15T23:40:33.166Z,55.16
2018-03-15T23:43:04.106Z,55.46
2018-03-15T23:45:35.094Z,55.97
2018-03-15T23:48:06.026Z,55.71
2018-03-15T23:50:36.992Z,55.58
2018-03-15T23:53:07.982Z,55.70
2018-03-15T23:55:38.932Z,55.86
2018-03-15T23:58:09.914Z,55.88
